Time;durP1;ratioP1;P1;durP2;ratioP2;P2;SDS_P1;SDS_P2;PMS_P1;PMS_P2;Temp;Humidity;BMP_temperature;BMP_pressure;BME280_temperature;BME280_humidity;BME280_pressure;Samples;Min_cycle;Max_cycle;Signal;HPM_P1;HPM_P2
2023/12/15 00:01:06;;;;;;;9.32;7.35;;;7.60;1.00;;;5.60;100.00;101647.47;5020861;28;20066;-78
2023/12/15 00:03:33;;;;;;;9.15;7.28;;;7.50;1.00;;;5.60;100.00;101653.59;5004862;28;20038;-78
2023/12/15 00:06:02;;;;;;;7.80;6.40;;;7.50;1.00;;;6.05;100.00;101747.53;5019353;28;20046;-79
2023/12/15 00:08:29;;;;;;;6.53;5.82;;;7.50;1.00;;;6.02;100.00;101740.53;4997847;28;20769;-78
2023/12/15 00:10:57;;;;;;;9.75;7.60;;;7.50;1.00;;;5.99;100.00;101750.91;4982680;28;20117;-77
2023/12/15 00:13:24;;;;;;;9.45;6.78;;;7.40;1.00;;;5.90;100.00;101733.34;4988638;28;20111;-78
2023/12/15 00:15:52;;;;;;;9.93;7.07;;;7.50;1.00;;;6.09;100.00;101765.03;5003230;28;20073;-78
2023/12/15 00:18:20;;;;;;;7.60;6.50;;;7.40;1.00;;;6.07;100.00;101759.75;4995343;28;20041;-77
2023/12/15 00:20:48;;;;;;;7.43;6.32;;;7.50;1.00;;;6.04;100.00;101746.66;5009571;28;20042;-77
2023/12/15 00:23:17;;;;;;;9.35;7.05;;;7.50;1.00;;;6.18;100.00;101766.91;4998168;28;20433;-78
2023/12/15 00:25:44;;;;;;;11.25;6.78;;;7.50;1.00;;;6.02;100.00;101761.44;4986147;28;20148;-77
2023/12/15 00:28:11;;;;;;;10.00;7.25;;;7.50;1.00;;;6.05;100.00;101763.22;4986069;28;20153;-77
2023/12/15 00:30:39;;;;;;;8.52;7.00;;;7.50;1.00;;;6.07;100.00;101766.75;5014926;28;20066;-78
2023/12/15 00:33:06;;;;;;;8.05;6.55;;;7.50;1.00;;;6.14;100.00;101773.81;5008257;28;20161;-77
2023/12/15 00:35:33;;;;;;;8.02;6.38;;;7.50;1.00;;;6.15;100.00;101769.47;4989310;28;20081;-78
2023/12/15 00:38:00;;;;;;;8.15;7.00;;;8.00;1.00;;;5.99;100.00;101740.44;5009129;28;20053;-77
2023/12/15 00:40:27;;;;;;;7.88;6.50;;;7.60;1.00;;;6.32;100.00;101791.56;5011969;28;20084;-78
2023/12/15 00:42:54;;;;;;;9.02;7.45;;;7.60;1.00;;;6.17;100.00;101776.50;5008966;28;20050;-79
2023/12/15 00:45:21;;;;;;;9.05;7.63;;;7.60;1.00;;;6.16;100.00;101789.53;5001306;28;20556;-79
2023/12/15 00:47:49;;;;;;;11.75;9.38;;;7.60;1.00;;;6.25;100.00;101779.25;5008994;28;20065;-78
2023/12/15 00:50:16;;;;;;;10.60;8.18;;;7.60;1.00;;;6.26;100.00;101790.56;4997212;28;20341;-78
2023/12/15 00:52:43;;;;;;;9.38;7.30;;;7.60;1.00;;;6.18;100.00;101793.06;4981442;28;20042;-77
2023/12/15 00:55:11;;;;;;;11.48;6.93;;;7.60;99.90;;;5.55;100.00;101689.19;5006618;28;20057;-77
2023/12/15 00:57:38;;;;;;;6.88;6.15;;;7.60;99.90;;;6.01;100.00;101764.91;4985706;28;20066;-77
2023/12/15 01:00:06;;;;;;;8.00;6.38;;;8.10;99.90;;;6.21;100.00;101799.22;5009582;28;20037;-77
2023/12/15 01:02:33;;;;;;;8.32;7.28;;;7.60;99.90;;;6.17;100.00;101793.91;5008428;28;20099;-78
2023/12/15 01:05:00;;;;;;;9.52;7.55;;;7.60;99.90;;;5.57;100.00;101692.72;4999661;28;20043;-78
2023/12/15 01:07:30;;;;;;;9.82;7.90;;;8.00;1.00;;;6.21;100.00;101819.22;5011911;28;20050;-79
2023/12/15 01:09:57;;;;;;;9.27;7.88;;;7.60;1.00;;;5.51;100.00;101708.25;5032331;28;20049;-79
2023/12/15 01:12:24;;;;;;;7.13;6.22;;;8.90;1.00;;;6.16;100.00;101815.66;4990776;28;20108;-78
2023/12/15 01:14:52;;;;;;;9.00;7.53;;;7.60;99.90;;;6.18;100.00;101820.09;4997578;28;20464;-80
2023/12/15 01:17:19;;;;;;;11.02;7.70;;;7.60;99.90;;;6.27;100.00;101835.03;5009009;28;20680;-77
2023/12/15 01:19:46;;;;;;;7.95;6.97;;;7.60;99.90;;;6.26;100.00;101837.63;5009551;28;20046;-79
2023/12/15 01:22:13;;;;;;;8.35;6.70;;;8.30;99.90;;;6.06;100.00;101823.34;5010244;28;20165;-79
2023/12/15 01:24:40;;;;;;;8.18;6.55;;;7.60;99.90;;;6.17;100.00;101840.94;4986153;28;20275;-79
2023/12/15 01:27:07;;;;;;;9.00;6.50;;;7.60;99.90;;;6.07;100.00;101834.69;5025646;28;20054;-79
2023/12/15 01:29:34;;;;;;;8.75;7.38;;;7.50;99.90;;;5.78;100.00;101808.84;5007277;28;20389;-78
2023/12/15 01:32:01;;;;;;;9.82;7.10;;;7.50;99.90;;;6.01;100.00;101829.28;4992456;28;20079;-78
2023/12/15 01:34:28;;;;;;;10.77;7.90;;;7.50;99.90;;;6.02;100.00;101829.38;4999108;28;20042;-77
2023/12/15 01:36:55;;;;;;;10.98;8.25;;;7.50;99.90;;;5.99;100.00;101824.06;5021243;28;20100;-78
2023/12/15 01:39:22;;;;;;;12.63;9.73;;;7.50;99.90;;;6.10;100.00;101848.69;5021054;28;20045;-80
2023/12/15 01:41:49;;;;;;;25.80;14.45;;;7.50;99.90;;;5.49;100.00;101765.69;5008849;28;20069;-77
2023/12/15 01:44:16;;;;;;;21.13;14.40;;;7.50;99.90;;;6.02;100.00;101850.25;4972645;28;20081;-78
2023/12/15 01:46:43;;;;;;;14.30;10.85;;;7.50;99.90;;;6.03;100.00;101861.63;4991530;28;20659;-77
2023/12/15 01:49:10;;;;;;;16.23;10.48;;;7.40;1.00;;;5.50;100.00;101777.88;4992328;28;20081;-80
2023/12/15 01:51:38;;;;;;;13.13;8.93;;;7.40;1.00;;;5.58;100.00;101798.91;5001139;28;20056;-78
2023/12/15 01:54:05;;;;;;;12.48;7.93;;;7.30;1.00;;;6.01;100.00;101876.31;5010903;28;20078;-80
2023/12/15 01:56:32;;;;;;;10.23;8.20;;;7.40;1.00;;;5.81;100.00;101854.22;5012031;28;20603;-77
2023/12/15 01:58:59;;;;;;;10.88;7.50;;;7.30;1.00;;;5.98;100.00;101890.22;5023083;28;20064;-80
2023/12/15 02:01:26;;;;;;;11.70;6.97;;;7.30;1.00;;;5.94;100.00;101885.81;5008744;28;20156;-79
2023/12/15 02:03:53;;;;;;;10.73;7.05;;;7.20;1.00;;;5.61;100.00;101845.97;4992186;28;20398;-78
2023/12/15 02:06:20;;;;;;;10.52;7.63;;;7.20;1.00;;;5.92;100.00;101901.44;4983875;28;20042;-79
2023/12/15 02:08:47;;;;;;;11.18;7.25;;;7.30;1.00;;;5.44;100.00;101826.47;5011890;28;20479;-80
2023/12/15 02:11:15;;;;;;;8.82;7.28;;;7.60;1.00;;;5.88;100.00;101890.88;5013886;28;20061;-79
2023/12/15 02:13:42;;;;;;;9.32;7.38;;;7.30;1.00;;;5.53;100.00;101837.97;5021557;28;20092;-78
2023/12/15 02:16:10;;;;;;;12.68;8.60;;;8.00;1.00;;;5.95;100.00;101913.69;5023858;28;20057;-78
2023/12/15 02:18:37;;;;;;;11.15;8.50;;;7.30;1.00;;;5.68;100.00;101862.66;5000689;28;20046;-79
2023/12/15 02:21:04;;;;;;;13.32;8.85;;;7.70;1.00;;;5.98;100.00;101905.91;5006724;28;20109;-77
2023/12/15 02:23:31;;;;;;;10.13;8.02;;;7.30;1.00;;;5.99;100.00;101904.16;5030596;28;20041;-79
2023/12/15 02:25:58;;;;;;;11.55;9.05;;;7.80;1.00;;;6.00;100.00;101909.44;5010895;28;20065;-78
2023/12/15 02:28:25;;;;;;;11.38;8.93;;;8.30;1.00;;;5.90;100.00;101897.91;4977288;28;20042;-80
2023/12/15 02:30:52;;;;;;;12.20;8.43;;;7.30;1.00;;;5.65;100.00;101857.38;4993114;28;20141;-78
2023/12/15 02:33:19;;;;;;;13.80;8.35;;;7.30;1.00;;;5.79;100.00;101882.03;4993443;28;20137;-77
2023/12/15 02:35:48;;;;;;;9.63;8.32;;;7.30;1.00;;;5.90;100.00;101903.13;5001054;28;20053;-79
2023/12/15 02:38:18;;;;;;;10.48;8.30;;;7.30;1.00;;;6.05;100.00;101925.25;4994143;28;20096;-77
2023/12/15 02:40:45;;;;;;;;;;;7.30;1.00;;;5.88;100.00;101901.34;5021835;28;20065;-78
2023/12/15 02:43:12;;;;;;;11.30;8.57;;;7.20;1.00;;;5.74;100.00;101885.41;4994553;28;20645;-80
2023/12/15 02:45:39;;;;;;;12.80;8.32;;;7.20;1.00;;;5.30;100.00;101828.78;5001794;28;20054;-77
2023/12/15 02:48:06;;;;;;;12.15;8.82;;;7.30;1.00;;;5.89;100.00;101909.22;4994850;28;20054;-79
2023/12/15 02:50:33;;;;;;;12.27;7.80;;;7.30;1.00;;;6.02;100.00;101930.41;5024543;28;20452;-79
2023/12/15 02:53:00;;;;;;;15.32;9.15;;;7.30;1.00;;;5.80;100.00;101886.41;4992676;28;20064;-80
2023/12/15 02:55:27;;;;;;;11.48;8.13;;;7.30;1.00;;;5.21;100.00;101800.75;4993968;28;20045;-80
2023/12/15 02:57:54;;;;;;;9.27;7.28;;;7.30;1.00;;;5.87;100.00;101904.81;4996334;28;20046;-78
2023/12/15 03:00:21;;;;;;;9.88;7.10;;;7.30;1.00;;;5.93;100.00;101933.66;4988328;28;20050;-80
2023/12/15 03:02:48;;;;;;;8.52;6.85;;;7.20;1.00;;;5.85;100.00;101923.03;4995233;28;20370;-79
2023/12/15 03:05:15;;;;;;;8.60;7.22;;;7.20;1.00;;;5.73;100.00;101918.47;5007018;28;20132;-77
2023/12/15 03:07:42;;;;;;;9.30;6.63;;;7.70;1.00;;;5.71;100.00;101906.25;5022579;28;20138;-80
2023/12/15 03:10:09;;;;;;;8.45;6.47;;;7.20;1.00;;;5.37;100.00;101859.41;4992316;28;20136;-77
2023/12/15 03:12:36;;;;;;;7.30;6.47;;;7.20;1.00;;;5.76;100.00;101921.13;5013138;28;20104;-79
2023/12/15 03:15:04;;;;;;;6.55;5.85;;;7.20;1.00;;;5.77;100.00;101916.81;5002247;28;20054;-77
2023/12/15 03:17:31;;;;;;;7.47;5.70;;;7.20;1.00;;;5.86;100.00;101944.84;4989466;28;20038;-77
2023/12/15 03:19:58;;;;;;;6.78;5.85;;;7.20;1.00;;;5.83;100.00;101927.38;5012552;28;20049;-77
2023/12/15 03:22:25;;;;;;;7.15;6.25;;;7.20;1.00;;;5.90;100.00;101949.28;5004171;28;20128;-78
2023/12/15 03:24:52;;;;;;;8.45;5.85;;;7.20;1.00;;;5.83;100.00;101943.03;4966809;28;20045;-79
2023/12/15 03:27:19;;;;;;;7.93;5.95;;;7.30;1.00;;;5.77;100.00;101922.03;4995276;28;20070;-77
2023/12/15 03:29:48;;;;;;;10.88;6.38;;;7.20;1.00;;;5.52;100.00;101892.75;5028474;28;20461;-77
2023/12/15 03:32:15;;;;;;;7.95;5.95;;;6.80;1.00;;;5.85;100.00;101943.94;4983220;28;20116;-78
2023/12/15 03:34:42;;;;;;;6.78;5.90;;;7.20;1.00;;;5.80;100.00;101940.38;5022510;28;20053;-77
2023/12/15 03:37:09;;;;;;;6.30;5.60;;;7.20;1.00;;;5.71;100.00;101929.75;5007278;28;20044;-78
2023/12/15 03:39:36;;;;;;;8.82;6.13;;;7.20;1.00;;;5.65;100.00;101920.03;4993592;28;20057;-78
2023/12/15 03:42:06;;;;;;;8.60;6.88;;;7.20;1.00;;;5.78;100.00;101944.69;4990102;28;20046;-78
2023/12/15 03:44:33;;;;;;;8.82;5.63;;;7.20;1.00;;;5.64;100.00;101929.59;5000884;28;20049;-79
2023/12/15 03:47:00;;;;;;;6.65;5.60;;;7.20;1.00;;;5.82;100.00;101949.09;4999716;28;20046;-79
2023/12/15 03:49:27;;;;;;;8.77;6.65;;;7.10;1.00;;;5.78;100.00;101947.28;5007489;28;20046;-80
2023/12/15 03:51:54;;;;;;;7.65;5.63;;;7.10;1.00;;;5.61;100.00;101929.53;5007594;28;20109;-79
2023/12/15 03:54:21;;;;;;;7.30;6.03;;;7.10;1.00;;;5.60;100.00;101934.72;4997379;28;20046;-79
2023/12/15 03:56:56;;;;;;;7.25;5.65;;;7.10;1.00;;;5.66;100.00;101953.13;5001916;28;20046;-77
2023/12/15 03:59:24;;;;;;;8.15;6.53;;;7.10;1.00;;;5.75;100.00;101971.59;4986159;28;20124;-79
2023/12/15 04:01:51;;;;;;;8.40;6.47;;;7.00;1.00;;;5.60;100.00;101960.81;5003581;28;20050;-76
2023/12/15 04:04:20;;;;;;;7.25;6.13;;;7.00;1.00;;;5.25;100.00;101925.25;5005350;28;20049;-77
2023/12/15 04:06:48;;;;;;;7.53;6.25;;;7.00;1.00;;;5.58;100.00;101959.91;5015530;28;20149;-77
2023/12/15 04:09:14;;;;;;;7.07;5.55;;;7.00;1.00;;;5.53;100.00;101958.09;5017599;28;20052;-76
2023/12/15 04:11:41;;;;;;;8.43;6.30;;;7.00;1.00;;;5.58;100.00;101992.13;4993033;28;20046;-76
2023/12/15 04:14:09;;;;;;;9.70;7.10;;;6.90;1.00;;;5.31;100.00;101950.63;5008016;28;20077;-78
2023/12/15 04:16:39;;;;;;;8.98;6.57;;;6.90;1.00;;;5.47;100.00;101983.16;5008767;28;20076;-78
2023/12/15 04:19:06;;;;;;;;;;;6.90;1.00;;;5.20;100.00;101939.91;5001571;28;20065;-77
2023/12/15 04:21:33;;;;;;;10.52;7.75;;;6.90;1.00;;;5.50;100.00;102001.50;5008167;28;19928;-78
2023/12/15 04:24:02;;;;;;;10.68;6.90;;;6.80;1.00;;;5.50;100.00;102005.00;4992672;28;20144;-77
2023/12/15 04:26:29;;;;;;;11.02;6.38;;;6.80;1.00;;;5.50;100.00;102015.47;5017701;28;20041;-78
2023/12/15 04:28:59;;;;;;;10.55;7.00;;;6.80;1.00;;;5.07;100.00;101934.44;4992948;28;20072;-77
2023/12/15 04:31:26;;;;;;;10.45;8.02;;;6.80;1.00;;;5.49;100.00;102018.91;5009243;28;20492;-77
2023/12/15 04:33:53;;;;;;;9.57;6.75;;;6.90;1.00;;;5.47;100.00;102010.16;5008398;28;20076;-76
2023/12/15 04:36:20;;;;;;;7.85;6.95;;;6.90;1.00;;;5.42;100.00;102014.38;5008459;28;20038;-77
2023/12/15 04:38:48;;;;;;;14.02;10.10;;;6.80;1.00;;;5.22;100.00;101988.69;5008606;28;20512;-77
2023/12/15 04:41:24;;;;;;;11.57;7.90;;;6.80;1.00;;;5.34;100.00;102016.81;4976522;28;20038;-78
2023/12/15 04:43:51;;;;;;;11.88;7.95;;;6.80;1.00;;;5.09;100.00;101976.19;5009023;28;20124;-79
2023/12/15 04:46:26;;;;;;;13.05;8.57;;;6.80;1.00;;;5.38;100.00;102051.72;5021260;28;20052;-78
2023/12/15 04:48:57;;;;;;;11.07;8.23;;;6.70;1.00;;;5.23;100.00;102019.16;5008842;28;20669;-79
2023/12/15 04:51:25;;;;;;;8.27;7.47;;;6.80;1.00;;;4.77;100.00;101942.34;5008881;28;20065;-78
2023/12/15 04:53:52;;;;;;;9.93;7.65;;;6.70;1.00;;;5.15;100.00;102022.44;4974076;28;20053;-81
2023/12/15 04:56:19;;;;;;;9.02;7.88;;;6.60;1.00;;;5.14;100.00;102046.75;5015279;28;20492;-80
2023/12/15 04:58:47;;;;;;;11.85;8.55;;;6.90;1.00;;;5.05;100.00;102016.09;5008898;28;20053;-80
2023/12/15 05:01:14;;;;;;;10.48;8.88;;;6.50;1.00;;;4.98;100.00;102017.66;4973188;28;20140;-79
2023/12/15 05:03:43;;;;;;;12.13;9.07;;;6.50;1.00;;;4.83;100.00;102005.09;5012458;28;20041;-82
2023/12/15 05:06:22;;;;;;;11.48;8.77;;;7.80;1.00;;;4.62;100.00;101972.41;5008166;28;20053;-80
2023/12/15 05:08:51;;;;;;;10.27;8.20;;;6.50;1.00;;;5.15;100.00;102054.63;4991241;28;20037;-80
2023/12/15 05:11:19;;;;;;;12.40;8.50;;;6.90;1.00;;;4.97;100.00;102013.28;5017606;28;20405;-78
2023/12/15 05:13:46;;;;;;;12.68;9.00;;;6.60;1.00;;;5.29;100.00;102077.56;4976073;28;20054;-81
2023/12/15 05:16:13;;;;;;;12.23;8.88;;;6.60;1.00;;;5.19;100.00;102068.63;4996826;28;20043;-80
2023/12/15 05:18:40;;;;;;;15.32;13.02;;;6.60;1.00;;;5.21;100.00;102069.53;5031527;28;20176;-79
2023/12/15 05:21:08;;;;;;;41.47;37.15;;;6.50;1.00;;;5.14;100.00;102065.03;4992557;28;20038;-79
2023/12/15 05:23:35;;;;;;;217.65;188.38;;;6.60;1.00;;;5.29;100.00;102083.69;4992226;28;20141;-84
2023/12/15 05:26:03;;;;;;;270.85;191.77;;;6.90;1.00;;;4.76;100.00;102005.78;4974725;28;20405;-79
2023/12/15 05:28:30;;;;;;;76.20;54.58;;;6.50;1.00;;;5.14;100.00;102093.72;4965818;28;20052;-81
2023/12/15 05:30:57;;;;;;;21.42;15.88;;;7.40;1.40;;;4.85;100.00;102053.00;4990697;28;20137;-79
2023/12/15 05:33:25;;;;;;;18.00;12.98;;;7.80;5.50;;;4.36;100.00;101980.38;5021684;28;20046;-79
2023/12/15 05:35:56;;;;;;;16.95;13.57;;;6.40;5.70;;;4.69;100.00;102030.81;4989357;28;20552;-78
2023/12/15 05:38:23;;;;;;;17.52;12.00;;;6.50;6.50;;;5.11;100.00;102090.19;5011765;28;20126;-78
2023/12/15 05:40:52;;;;;;;12.30;10.77;;;6.60;7.10;;;5.19;100.00;102111.28;5009244;28;20050;-81
2023/12/15 05:43:19;;;;;;;63.90;43.42;;;8.00;1.30;;;5.24;100.00;102116.63;4993546;28;20546;-78
2023/12/15 05:45:46;;;;;;;28.20;18.98;;;6.60;1.20;;;5.21;100.00;102122.63;4992341;28;20520;-78
2023/12/15 05:48:13;;;;;;;23.70;20.85;;;6.60;4.10;;;4.93;100.00;102076.66;4989783;28;20061;-79
2023/12/15 05:50:40;;;;;;;13.10;10.40;;;7.60;1.00;;;5.14;100.00;102120.69;5008159;28;20057;-79
2023/12/15 05:53:10;;;;;;;11.93;10.50;;;6.60;2.80;;;5.21;100.00;102132.19;5001816;28;20052;-76
2023/12/15 05:55:40;;;;;;;17.05;10.43;;;6.80;2.20;;;5.18;100.00;102129.50;4993932;28;20049;-75
2023/12/15 05:58:07;;;;;;;19.60;17.35;;;7.40;1.00;;;5.04;100.00;102122.16;5009995;28;20050;-78
2023/12/15 06:00:34;;;;;;;13.48;10.07;;;6.60;1.00;;;5.13;100.00;102131.97;5025813;28;20141;-80
2023/12/15 06:03:01;;;;;;;14.35;10.75;;;6.70;3.00;;;5.30;100.00;102168.97;5015317;28;20046;-83
2023/12/15 06:05:33;;;;;;;13.05;10.15;;;7.70;1.00;;;4.71;100.00;102083.88;4983823;28;20052;-79
2023/12/15 06:08:07;;;;;;;13.00;10.27;;;7.60;1.00;;;5.10;100.00;102140.63;4979084;28;20100;-78
2023/12/15 06:10:34;;;;;;;14.80;9.82;;;6.60;4.20;;;5.14;100.00;102156.34;5006697;28;20050;-77
2023/12/15 06:13:06;;;;;;;15.82;11.55;;;6.60;3.10;;;4.67;100.00;102088.13;5009638;28;20046;-79
2023/12/15 06:15:34;;;;;;;13.80;10.52;;;6.60;3.50;;;5.17;100.00;102164.25;4991520;28;20050;-81
2023/12/15 06:18:07;;;;;;;14.35;11.85;;;6.60;3.90;;;5.21;100.00;102169.63;5040139;28;20052;-79
2023/12/15 06:20:35;;;;;;;14.63;11.07;;;6.60;3.90;;;5.17;100.00;102159.94;4943814;28;20583;-79
2023/12/15 06:23:05;;;;;;;16.23;10.43;;;6.60;6.50;;;5.13;100.00;102158.06;4974386;28;20059;-80
2023/12/15 06:25:32;;;;;;;13.05;11.35;;;7.70;5.00;;;5.30;100.00;102182.03;4988287;28;20054;-81
2023/12/15 06:27:59;;;;;;;14.20;11.10;;;6.60;3.60;;;5.24;100.00;102179.25;5002409;28;20058;-80
2023/12/15 06:30:26;;;;;;;14.32;10.82;;;6.60;2.10;;;5.00;100.00;102154.25;4991297;28;20060;-79
2023/12/15 06:32:53;;;;;;;18.67;12.55;;;6.60;2.60;;;5.27;100.00;102183.66;4985677;28;20057;-80
2023/12/15 06:35:20;;;;;;;17.70;11.50;;;7.40;4.60;;;4.55;100.00;102074.78;5003040;28;20050;-79
2023/12/15 06:37:47;;;;;;;14.80;10.80;;;6.60;4.30;;;5.33;100.00;102199.50;4994957;28;20053;-80
2023/12/15 06:40:17;;;;;;;18.48;12.98;;;6.70;5.60;;;5.25;100.00;102186.25;5017870;28;20072;-80
2023/12/15 06:42:48;;;;;;;;;;;6.70;1.00;;;4.83;100.00;102127.69;5014375;28;20053;-78
2023/12/15 06:45:15;;;;;;;17.50;11.70;;;6.70;10.80;;;5.21;100.00;102186.97;5008335;28;19931;-79
2023/12/15 06:47:42;;;;;;;15.20;12.10;;;6.80;12.70;;;5.07;100.00;102184.91;4992218;28;20049;-82
2023/12/15 06:50:10;;;;;;;18.40;13.68;;;6.70;7.40;;;4.61;100.00;102105.34;5007218;28;20053;-80
2023/12/15 06:52:42;;;;;;;18.58;13.00;;;7.80;11.70;;;5.33;100.00;102216.03;5000581;28;20038;-80
2023/12/15 06:55:09;;;;;;;20.20;13.38;;;6.60;14.80;;;4.67;100.00;102113.34;5015981;28;20124;-80
2023/12/15 06:57:36;;;;;;;18.88;13.00;;;6.60;15.20;;;4.60;100.00;102106.16;4992263;28;20518;-80
2023/12/15 07:00:06;;;;;;;18.00;13.00;;;6.60;19.50;;;5.07;100.00;102200.56;4988880;28;20348;-78
2023/12/15 07:02:34;;;;;;;;;;;5.50;20.10;;;4.92;100.00;102174.91;4997785;28;20634;-76
2023/12/15 07:05:02;;;;;;;21.30;13.73;;;6.50;22.00;;;5.16;100.00;102214.69;4980571;28;19926;-79
2023/12/15 07:07:29;;;;;;;21.08;14.95;;;6.60;23.30;;;5.05;100.00;102190.91;4979581;28;20120;-81
2023/12/15 07:09:56;;;;;;;22.90;15.20;;;6.60;25.40;;;5.04;100.00;102203.06;4984414;28;20053;-80
2023/12/15 07:12:26;;;;;;;19.38;14.20;;;6.60;25.60;;;4.73;100.00;102147.41;5011044;28;20349;-80
2023/12/15 07:14:53;;;;;;;19.50;14.77;;;6.80;25.70;;;5.19;100.00;102225.19;5005434;28;20050;-79
2023/12/15 07:17:26;;;;;;;20.40;14.88;;;6.60;26.40;;;5.29;100.00;102242.00;4986101;28;20429;-79
2023/12/15 07:19:53;;;;;;;21.42;14.32;;;6.60;29.10;;;5.02;100.00;102198.66;5003586;28;20037;-79
2023/12/15 07:22:23;;;;;;;22.15;14.75;;;6.60;30.90;;;5.15;100.00;102228.56;5020139;28;20141;-79
2023/12/15 07:24:50;;;;;;;;;;;6.60;33.10;;;4.94;100.00;102185.38;5005050;28;20042;-78
2023/12/15 07:27:17;;;;;;;23.10;13.73;;;7.10;31.70;;;5.09;100.00;102213.63;5002777;28;20016;-80
2023/12/15 07:29:45;;;;;;;21.95;15.07;;;6.60;33.50;;;5.28;100.00;102262.03;4993523;28;20117;-78
2023/12/15 07:32:12;;;;;;;22.05;14.98;;;7.30;36.00;;;5.22;100.00;102238.34;5007514;28;20050;-80
2023/12/15 07:34:39;;;;;;;19.60;14.95;;;6.60;38.60;;;5.22;100.00;102235.72;4999711;28;20041;-79
2023/12/15 07:37:06;;;;;;;22.77;17.30;;;6.60;39.00;;;5.22;100.00;102241.84;5002633;28;20050;-79
2023/12/15 07:39:36;;;;;;;21.58;14.82;;;7.10;39.20;;;5.23;100.00;102251.44;4986338;28;20042;-79
2023/12/15 07:42:03;;;;;;;;;;;6.70;38.10;;;5.20;100.00;102267.03;5001682;28;20379;-80
2023/12/15 07:44:30;;;;;;;21.83;15.85;;;6.70;38.60;;;5.18;100.00;102244.31;4982747;28;19925;-79
2023/12/15 07:46:58;;;;;;;20.75;14.57;;;6.70;38.30;;;5.39;100.00;102278.88;5007107;28;20129;-79
2023/12/15 07:49:25;;;;;;;26.48;18.65;;;6.70;41.60;;;5.08;100.00;102223.19;5017539;28;20535;-78
2023/12/15 07:51:52;;;;;;;22.77;16.35;;;6.70;40.80;;;5.40;100.00;102284.97;5004341;28;20054;-78
2023/12/15 07:54:19;;;;;;;24.80;15.68;;;6.70;41.60;;;5.16;100.00;102246.91;5007301;28;20064;-78
2023/12/15 07:56:46;;;;;;;22.80;17.13;;;6.80;41.60;;;5.34;100.00;102272.63;5015826;28;20053;-79
2023/12/15 07:59:13;;;;;;;22.40;16.13;;;6.80;43.40;;;5.44;100.00;102278.13;4997313;28;20124;-79
2023/12/15 08:01:40;;;;;;;24.58;16.60;;;6.80;43.70;;;5.53;100.00;102289.69;5018967;28;20038;-80
2023/12/15 08:04:10;;;;;;;23.27;17.65;;;7.00;44.00;;;5.46;100.00;102268.59;4999934;28;20145;-80
2023/12/15 08:06:37;;;;;;;24.42;15.98;;;6.90;43.30;;;5.33;100.00;102255.19;4991219;28;20050;-79
2023/12/15 08:09:05;;;;;;;22.65;16.17;;;6.80;44.90;;;5.37;100.00;102254.44;4991829;28;20117;-80
2023/12/15 08:11:32;;;;;;;22.45;16.23;;;6.90;46.40;;;5.60;100.00;102287.25;4986783;28;20398;-78
2023/12/15 08:14:01;;;;;;;23.85;16.80;;;7.40;44.50;;;5.60;100.00;102293.38;5006096;28;20437;-78
2023/12/15 08:16:28;;;;;;;22.00;16.38;;;7.00;43.70;;;5.59;100.00;102277.63;4994412;28;20049;-78
2023/12/15 08:18:55;;;;;;;24.63;16.95;;;7.00;43.40;;;5.18;100.00;102213.00;5004866;28;20908;-78
2023/12/15 08:21:22;;;;;;;24.45;17.02;;;7.00;44.20;;;5.57;100.00;102287.16;4986004;28;20096;-81
2023/12/15 08:23:50;;;;;;;23.63;17.77;;;7.10;44.60;;;5.48;100.00;102257.34;5009406;28;20042;-78
2023/12/15 08:26:27;;;;;;;21.38;15.32;;;7.00;46.30;;;5.65;100.00;102288.28;4992632;28;20179;-79
2023/12/15 08:28:54;;;;;;;22.92;16.48;;;7.10;46.30;;;5.74;100.00;102308.53;5012068;28;20056;-77
2023/12/15 08:31:23;;;;;;;22.95;17.20;;;7.00;49.00;;;5.52;100.00;102280.09;4998036;28;20069;-78
2023/12/15 08:33:51;;;;;;;21.48;15.95;;;7.10;48.80;;;5.45;100.00;102251.16;5009498;28;20073;-78
2023/12/15 08:36:19;;;;;;;25.05;17.10;;;7.10;49.10;;;5.61;100.00;102289.91;5007747;28;20579;-78
2023/12/15 08:38:48;;;;;;;21.77;17.08;;;7.20;47.00;;;5.53;100.00;102281.88;5009055;28;20612;-78
2023/12/15 08:41:15;;;;;;;22.35;17.10;;;7.10;48.30;;;5.74;100.00;102311.16;4983428;28;20048;-80
2023/12/15 08:43:42;;;;;;;21.38;15.95;;;7.20;51.30;;;5.76;100.00;102323.38;5007812;28;20061;-78
2023/12/15 08:46:11;;;;;;;24.67;17.00;;;7.20;47.80;;;5.82;100.00;102330.50;4993429;28;20511;-79
2023/12/15 08:48:38;;;;;;;23.20;16.52;;;8.10;50.20;;;5.80;100.00;102325.25;5007677;28;20050;-80
2023/12/15 08:51:05;;;;;;;21.70;16.70;;;7.60;48.60;;;5.86;100.00;102329.78;5004927;28;20050;-78
2023/12/15 08:53:32;;;;;;;20.95;15.65;;;8.00;47.50;;;5.89;100.00;102344.63;5019753;28;20042;-77
2023/12/15 08:55:59;;;;;;;22.70;16.20;;;8.10;45.90;;;5.81;100.00;102327.03;5011352;28;20096;-80
2023/12/15 08:58:28;;;;;;;25.60;17.17;;;6.60;45.70;;;5.89;100.00;102322.00;4995102;28;20060;-77
2023/12/15 09:00:55;;;;;;;21.88;16.58;;;7.30;45.30;;;5.35;100.00;102221.31;5006926;28;20033;-80
2023/12/15 09:03:23;;;;;;;23.20;16.58;;;7.40;40.30;;;5.83;100.00;102295.69;5001792;28;20038;-78
2023/12/15 09:05:50;;;;;;;28.98;19.98;;;7.40;31.90;;;6.00;100.00;102334.44;5009561;28;20046;-78
2023/12/15 09:08:41;;;;;;;18.23;14.43;;;7.40;31.90;;;6.01;100.00;102337.16;5006346;28;20041;-80
2023/12/15 09:11:11;;;;;;;26.27;16.52;;;7.40;32.50;;;5.74;100.00;102290.25;4995418;28;20147;-79
2023/12/15 09:13:39;;;;;;;20.55;16.13;;;7.40;35.00;;;6.02;100.00;102340.66;4998121;28;20099;-77
2023/12/15 09:16:06;;;;;;;23.00;16.35;;;7.40;33.30;;;6.12;100.00;102349.63;5002494;28;20132;-80
2023/12/15 09:18:33;;;;;;;18.80;16.70;;;7.40;33.20;;;6.02;100.00;102338.06;5000919;28;20069;-77
2023/12/15 09:21:00;;;;;;;21.15;15.57;;;7.50;29.10;;;6.04;100.00;102342.47;5017864;28;20771;-78
2023/12/15 09:23:28;;;;;;;19.25;15.40;;;7.50;31.20;;;6.13;100.00;102349.66;4994335;28;20048;-79
2023/12/15 09:25:55;;;;;;;18.02;15.30;;;7.60;32.80;;;6.21;100.00;102365.53;5002035;28;20160;-78
2023/12/15 09:28:22;;;;;;;21.88;15.27;;;7.60;26.80;;;6.23;100.00;102361.22;5005631;28;20054;-78
2023/12/15 09:30:49;;;;;;;20.85;14.60;;;7.60;26.20;;;6.27;100.00;102357.88;5005485;28;20729;-78
2023/12/15 09:33:18;;;;;;;19.02;14.30;;;7.60;26.60;;;6.23;100.00;102356.91;5021994;28;20575;-78
2023/12/15 09:35:45;;;;;;;20.88;14.95;;;8.80;20.70;;;6.32;100.00;102361.47;4992751;28;20147;-77
2023/12/15 09:38:12;;;;;;;18.73;14.63;;;7.80;19.30;;;6.47;100.00;102376.66;4996479;28;20072;-77
2023/12/15 09:40:41;;;;;;;16.92;13.68;;;7.80;21.10;;;6.47;100.00;102374.03;5008595;28;20065;-78
2023/12/15 09:43:08;;;;;;;20.45;14.30;;;7.80;21.30;;;6.50;100.00;102376.75;5006586;28;20037;-77
2023/12/15 09:45:35;;;;;;;24.20;17.25;;;7.90;9.90;;;6.64;100.00;102402.38;5004854;28;20049;-78
2023/12/15 09:48:06;;;;;;;19.98;15.05;;;7.90;13.60;;;6.61;100.00;102394.44;5023244;28;20056;-77
2023/12/15 09:50:44;;;;;;;18.15;14.02;;;7.90;15.80;;;6.60;100.00;102383.09;5021038;28;20231;-77
2023/12/15 09:53:12;;;;;;;25.95;17.83;;;9.50;14.60;;;6.63;100.00;102397.97;5006922;28;20054;-77
2023/12/15 09:55:39;;;;;;;21.10;13.98;;;8.00;11.90;;;5.94;100.00;102296.88;5038412;28;20046;-77
2023/12/15 09:58:06;;;;;;;25.00;15.30;;;8.30;4.90;;;6.63;100.00;102401.50;5021793;28;20042;-78
2023/12/15 10:00:37;;;;;;;21.38;14.90;;;8.10;3.00;;;6.54;100.00;102380.31;5004274;28;20124;-78
2023/12/15 10:03:04;;;;;;;24.80;14.57;;;8.30;1.00;;;6.56;100.00;102396.97;5012650;28;20069;-77
2023/12/15 10:05:32;;;;;;;25.52;16.50;;;8.10;1.00;;;6.81;100.00;102435.09;5001835;28;20313;-80
2023/12/15 10:07:59;;;;;;;32.95;19.67;;;8.10;1.00;;;6.89;100.00;102453.59;5014106;28;20056;-80
2023/12/15 10:10:26;;;;;;;32.83;20.35;;;8.20;1.00;;;6.81;100.00;102432.47;4999675;28;20080;-78
2023/12/15 10:12:57;;;;;;;28.58;20.48;;;8.20;1.00;;;6.86;100.00;102437.78;5001125;28;20049;-76
2023/12/15 10:15:24;;;;;;;;;;;8.20;1.00;;;6.93;100.00;102442.34;5006322;28;20171;-75
2023/12/15 10:17:57;;;;;;;25.75;12.95;;;8.30;4.60;;;6.92;100.00;102419.63;5014448;28;20492;-75
2023/12/15 10:20:25;;;;;;;17.02;11.98;;;8.20;1.00;;;6.94;100.00;102419.66;5005313;28;20612;-75